sensor_id;sensor_type;location;lat;lon;timestamp;P1;durP1;ratioP1;P2;durP2;ratioP2
20653;SDS011;21083;50.898;4.902;2023-07-31T00:01:48;12.18;;;3.70;;
20653;SDS011;21083;50.898;4.902;2023-07-31T00:04:15;21.77;;;4.53;;
20653;SDS011;21083;50.898;4.902;2023-07-31T00:06:41;16.42;;;5.00;;
20653;SDS011;21083;50.898;4.902;2023-07-31T00:09:10;15.52;;;4.40;;
20653;SDS011;21083;50.898;4.902;2023-07-31T00:11:37;14.75;;;3.90;;
20653;SDS011;21083;50.898;4.902;2023-07-31T00:14:03;21.20;;;4.70;;
20653;SDS011;21083;50.898;4.902;2023-07-31T00:16:30;20.88;;;5.00;;
20653;SDS011;21083;50.898;4.902;2023-07-31T00:18:57;19.75;;;4.85;;
20653;SDS011;21083;50.898;4.902;2023-07-31T00:21:24;16.38;;;4.43;;
20653;SDS011;21083;50.898;4.902;2023-07-31T00:23:51;20.15;;;5.03;;
20653;SDS011;21083;50.898;4.902;2023-07-31T00:26:19;23.05;;;5.18;;
20653;SDS011;21083;50.898;4.902;2023-07-31T00:28:46;19.25;;;5.47;;
20653;SDS011;21083;50.898;4.902;2023-07-31T00:31:13;21.17;;;5.50;;
20653;SDS011;21083;50.898;4.902;2023-07-31T00:33:40;20.85;;;3.90;;
20653;SDS011;21083;50.898;4.902;2023-07-31T00:36:07;20.83;;;5.85;;
20653;SDS011;21083;50.898;4.902;2023-07-31T00:38:33;22.98;;;4.88;;
20653;SDS011;21083;50.898;4.902;2023-07-31T00:41:00;20.80;;;5.05;;
20653;SDS011;21083;50.898;4.902;2023-07-31T00:43:28;15.57;;;4.10;;
20653;SDS011;21083;50.898;4.902;2023-07-31T00:45:55;18.45;;;4.53;;
20653;SDS011;21083;50.898;4.902;2023-07-31T00:48:22;20.67;;;4.43;;
20653;SDS011;21083;50.898;4.902;2023-07-31T00:50:50;17.60;;;5.22;;
20653;SDS011;21083;50.898;4.902;2023-07-31T00:53:17;20.23;;;4.15;;
20653;SDS011;21083;50.898;4.902;2023-07-31T00:55:44;16.08;;;4.47;;
20653;SDS011;21083;50.898;4.902;2023-07-31T00:58:11;14.20;;;4.10;;
20653;SDS011;21083;50.898;4.902;2023-07-31T01:00:39;20.35;;;4.15;;
20653;SDS011;21083;50.898;4.902;2023-07-31T01:03:06;21.20;;;5.55;;
20653;SDS011;21083;50.898;4.902;2023-07-31T01:05:36;15.52;;;4.72;;
20653;SDS011;21083;50.898;4.902;2023-07-31T01:08:09;17.70;;;4.30;;
20653;SDS011;21083;50.898;4.902;2023-07-31T01:10:46;18.98;;;4.72;;
20653;SDS011;21083;50.898;4.902;2023-07-31T01:13:17;15.77;;;4.88;;
20653;SDS011;21083;50.898;4.902;2023-07-31T01:15:46;15.15;;;4.47;;
20653;SDS011;21083;50.898;4.902;2023-07-31T01:18:13;20.67;;;5.50;;
20653;SDS011;21083;50.898;4.902;2023-07-31T01:20:41;20.35;;;4.82;;
20653;SDS011;21083;50.898;4.902;2023-07-31T01:23:35;14.52;;;4.22;;
20653;SDS011;21083;50.898;4.902;2023-07-31T01:26:19;16.55;;;4.35;;
20653;SDS011;21083;50.898;4.902;2023-07-31T01:28:50;13.60;;;4.63;;
20653;SDS011;21083;50.898;4.902;2023-07-31T01:31:23;18.08;;;5.05;;
20653;SDS011;21083;50.898;4.902;2023-07-31T01:33:50;17.65;;;4.93;;
20653;SDS011;21083;50.898;4.902;2023-07-31T01:36:20;17.55;;;4.65;;
20653;SDS011;21083;50.898;4.902;2023-07-31T01:38:48;20.95;;;4.97;;
20653;SDS011;21083;50.898;4.902;2023-07-31T01:41:16;22.20;;;5.10;;
20653;SDS011;21083;50.898;4.902;2023-07-31T01:43:44;14.18;;;3.95;;
20653;SDS011;21083;50.898;4.902;2023-07-31T01:46:12;13.57;;;4.25;;
20653;SDS011;21083;50.898;4.902;2023-07-31T01:48:38;14.73;;;3.97;;
20653;SDS011;21083;50.898;4.902;2023-07-31T01:51:05;22.17;;;5.22;;
20653;SDS011;21083;50.898;4.902;2023-07-31T01:53:32;17.13;;;4.22;;
20653;SDS011;21083;50.898;4.902;2023-07-31T01:55:59;18.35;;;4.80;;
20653;SDS011;21083;50.898;4.902;2023-07-31T01:58:26;15.05;;;4.05;;
20653;SDS011;21083;50.898;4.902;2023-07-31T02:00:54;14.90;;;4.57;;
20653;SDS011;21083;50.898;4.902;2023-07-31T02:03:21;12.88;;;4.90;;
20653;SDS011;21083;50.898;4.902;2023-07-31T02:05:49;15.50;;;5.18;;
20653;SDS011;21083;50.898;4.902;2023-07-31T02:08:16;18.88;;;4.72;;
20653;SDS011;21083;50.898;4.902;2023-07-31T02:10:43;14.30;;;4.72;;
20653;SDS011;21083;50.898;4.902;2023-07-31T02:13:09;16.95;;;4.38;;
20653;SDS011;21083;50.898;4.902;2023-07-31T02:15:36;13.77;;;4.50;;
20653;SDS011;21083;50.898;4.902;2023-07-31T02:18:05;15.38;;;4.00;;
20653;SDS011;21083;50.898;4.902;2023-07-31T02:20:33;16.52;;;5.03;;
20653;SDS011;21083;50.898;4.902;2023-07-31T02:23:00;17.50;;;5.05;;
20653;SDS011;21083;50.898;4.902;2023-07-31T02:25:27;15.57;;;4.15;;
20653;SDS011;21083;50.898;4.902;2023-07-31T02:27:54;15.13;;;4.45;;
20653;SDS011;21083;50.898;4.902;2023-07-31T02:30:21;18.17;;;4.70;;
20653;SDS011;21083;50.898;4.902;2023-07-31T02:32:48;15.82;;;4.97;;
20653;SDS011;21083;50.898;4.902;2023-07-31T02:35:16;15.07;;;5.15;;
20653;SDS011;21083;50.898;4.902;2023-07-31T02:37:43;15.45;;;4.40;;
20653;SDS011;21083;50.898;4.902;2023-07-31T02:40:11;13.63;;;4.70;;
20653;SDS011;21083;50.898;4.902;2023-07-31T02:42:38;16.17;;;4.80;;
20653;SDS011;21083;50.898;4.902;2023-07-31T02:45:05;17.55;;;4.60;;
20653;SDS011;21083;50.898;4.902;2023-07-31T02:47:33;17.00;;;5.07;;
20653;SDS011;21083;50.898;4.902;2023-07-31T02:50:00;14.43;;;4.72;;
20653;SDS011;21083;50.898;4.902;2023-07-31T02:52:29;16.88;;;5.35;;
20653;SDS011;21083;50.898;4.902;2023-07-31T02:54:55;17.73;;;5.18;;
20653;SDS011;21083;50.898;4.902;2023-07-31T02:57:23;16.90;;;5.22;;
20653;SDS011;21083;50.898;4.902;2023-07-31T02:59:50;14.32;;;4.60;;
20653;SDS011;21083;50.898;4.902;2023-07-31T03:02:17;17.80;;;5.65;;
20653;SDS011;21083;50.898;4.902;2023-07-31T03:04:44;13.38;;;4.85;;
20653;SDS011;21083;50.898;4.902;2023-07-31T03:07:11;14.93;;;4.63;;
20653;SDS011;21083;50.898;4.902;2023-07-31T03:09:39;20.30;;;5.60;;
20653;SDS011;21083;50.898;4.902;2023-07-31T03:12:06;13.57;;;5.20;;
20653;SDS011;21083;50.898;4.902;2023-07-31T03:14:34;16.25;;;5.07;;
20653;SDS011;21083;50.898;4.902;2023-07-31T03:17:01;16.33;;;5.47;;
20653;SDS011;21083;50.898;4.902;2023-07-31T03:19:30;12.93;;;4.60;;
20653;SDS011;21083;50.898;4.902;2023-07-31T03:21:57;14.50;;;5.20;;
20653;SDS011;21083;50.898;4.902;2023-07-31T03:24:24;17.25;;;4.63;;
20653;SDS011;21083;50.898;4.902;2023-07-31T03:26:53;14.35;;;4.60;;
20653;SDS011;21083;50.898;4.902;2023-07-31T03:29:20;14.25;;;4.35;;
20653;SDS011;21083;50.898;4.902;2023-07-31T03:31:46;12.30;;;4.20;;
20653;SDS011;21083;50.898;4.902;2023-07-31T03:34:13;11.32;;;4.22;;
20653;SDS011;21083;50.898;4.902;2023-07-31T03:36:40;13.88;;;4.90;;
20653;SDS011;21083;50.898;4.902;2023-07-31T03:39:07;13.57;;;4.22;;
20653;SDS011;21083;50.898;4.902;2023-07-31T03:41:34;10.88;;;3.78;;
20653;SDS011;21083;50.898;4.902;2023-07-31T03:44:03;13.18;;;4.20;;
20653;SDS011;21083;50.898;4.902;2023-07-31T03:46:30;15.02;;;4.35;;
20653;SDS011;21083;50.898;4.902;2023-07-31T03:48:57;11.57;;;3.78;;
20653;SDS011;21083;50.898;4.902;2023-07-31T03:51:24;15.68;;;4.53;;
20653;SDS011;21083;50.898;4.902;2023-07-31T03:53:51;12.55;;;4.18;;
20653;SDS011;21083;50.898;4.902;2023-07-31T03:56:18;12.18;;;3.83;;
20653;SDS011;21083;50.898;4.902;2023-07-31T03:58:44;10.98;;;4.28;;
20653;SDS011;21083;50.898;4.902;2023-07-31T04:01:13;14.35;;;4.15;;
20653;SDS011;21083;50.898;4.902;2023-07-31T04:03:40;11.95;;;3.90;;
20653;SDS011;21083;50.898;4.902;2023-07-31T04:06:07;11.75;;;4.10;;
20653;SDS011;21083;50.898;4.902;2023-07-31T04:08:34;11.88;;;4.28;;
20653;SDS011;21083;50.898;4.902;2023-07-31T04:11:01;10.52;;;4.07;;
20653;SDS011;21083;50.898;4.902;2023-07-31T04:13:29;10.57;;;4.18;;
20653;SDS011;21083;50.898;4.902;2023-07-31T04:15:56;10.77;;;3.95;;
20653;SDS011;21083;50.898;4.902;2023-07-31T04:18:25;13.90;;;4.00;;
20653;SDS011;21083;50.898;4.902;2023-07-31T04:20:52;11.52;;;3.60;;
20653;SDS011;21083;50.898;4.902;2023-07-31T04:23:19;9.90;;;4.10;;
20653;SDS011;21083;50.898;4.902;2023-07-31T04:25:46;11.77;;;3.90;;
20653;SDS011;21083;50.898;4.902;2023-07-31T04:28:13;10.73;;;4.55;;
20653;SDS011;21083;50.898;4.902;2023-07-31T04:30:40;13.43;;;4.00;;
20653;SDS011;21083;50.898;4.902;2023-07-31T04:33:07;11.40;;;3.70;;
20653;SDS011;21083;50.898;4.902;2023-07-31T04:35:36;10.27;;;4.05;;
20653;SDS011;21083;50.898;4.902;2023-07-31T04:38:03;11.90;;;4.68;;
20653;SDS011;21083;50.898;4.902;2023-07-31T04:40:30;13.32;;;4.35;;
20653;SDS011;21083;50.898;4.902;2023-07-31T04:42:57;11.32;;;4.00;;
20653;SDS011;21083;50.898;4.902;2023-07-31T04:45:24;12.30;;;4.13;;
20653;SDS011;21083;50.898;4.902;2023-07-31T04:47:51;10.88;;;4.20;;
20653;SDS011;21083;50.898;4.902;2023-07-31T04:50:18;10.10;;;3.80;;
20653;SDS011;21083;50.898;4.902;2023-07-31T04:52:46;10.27;;;3.95;;
20653;SDS011;21083;50.898;4.902;2023-07-31T04:55:13;12.95;;;4.07;;
20653;SDS011;21083;50.898;4.902;2023-07-31T04:57:40;10.20;;;4.05;;
20653;SDS011;21083;50.898;4.902;2023-07-31T05:00:07;13.10;;;3.97;;
20653;SDS011;21083;50.898;4.902;2023-07-31T05:02:35;14.30;;;4.35;;
20653;SDS011;21083;50.898;4.902;2023-07-31T05:05:02;12.07;;;3.88;;
20653;SDS011;21083;50.898;4.902;2023-07-31T05:07:29;10.60;;;3.85;;
20653;SDS011;21083;50.898;4.902;2023-07-31T05:09:58;11.85;;;4.18;;
20653;SDS011;21083;50.898;4.902;2023-07-31T05:12:25;12.57;;;3.60;;
20653;SDS011;21083;50.898;4.902;2023-07-31T05:14:52;11.95;;;3.92;;
20653;SDS011;21083;50.898;4.902;2023-07-31T05:17:19;12.95;;;3.97;;
20653;SDS011;21083;50.898;4.902;2023-07-31T05:19:45;13.55;;;4.00;;
20653;SDS011;21083;50.898;4.902;2023-07-31T05:22:12;10.95;;;3.50;;
20653;SDS011;21083;50.898;4.902;2023-07-31T05:24:39;11.90;;;3.83;;
20653;SDS011;21083;50.898;4.902;2023-07-31T05:27:08;9.27;;;3.78;;
20653;SDS011;21083;50.898;4.902;2023-07-31T05:29:35;15.43;;;4.13;;
20653;SDS011;21083;50.898;4.902;2023-07-31T05:32:03;12.77;;;3.88;;
20653;SDS011;21083;50.898;4.902;2023-07-31T05:34:30;9.57;;;3.67;;
20653;SDS011;21083;50.898;4.902;2023-07-31T05:36:57;12.38;;;4.20;;
20653;SDS011;21083;50.898;4.902;2023-07-31T05:39:24;13.82;;;3.67;;
20653;SDS011;21083;50.898;4.902;2023-07-31T05:41:51;12.15;;;3.85;;
20653;SDS011;21083;50.898;4.902;2023-07-31T05:44:19;13.90;;;4.13;;
20653;SDS011;21083;50.898;4.902;2023-07-31T05:46:46;14.55;;;4.15;;
20653;SDS011;21083;50.898;4.902;2023-07-31T05:49:13;11.82;;;3.80;;
20653;SDS011;21083;50.898;4.902;2023-07-31T05:51:40;12.23;;;3.58;;
20653;SDS011;21083;50.898;4.902;2023-07-31T05:54:07;11.20;;;3.72;;
20653;SDS011;21083;50.898;4.902;2023-07-31T05:56:34;13.50;;;3.95;;
20653;SDS011;21083;50.898;4.902;2023-07-31T05:59:01;11.68;;;4.03;;
20653;SDS011;21083;50.898;4.902;2023-07-31T06:01:30;14.98;;;3.95;;
20653;SDS011;21083;50.898;4.902;2023-07-31T06:03:57;10.45;;;3.40;;
20653;SDS011;21083;50.898;4.902;2023-07-31T06:06:24;12.20;;;3.38;;
20653;SDS011;21083;50.898;4.902;2023-07-31T06:08:51;12.35;;;4.07;;
20653;SDS011;21083;50.898;4.902;2023-07-31T06:11:18;12.55;;;4.30;;
20653;SDS011;21083;50.898;4.902;2023-07-31T06:13:46;11.60;;;3.60;;
20653;SDS011;21083;50.898;4.902;2023-07-31T06:16:14;12.68;;;3.92;;
20653;SDS011;21083;50.898;4.902;2023-07-31T06:18:43;13.85;;;3.75;;
20653;SDS011;21083;50.898;4.902;2023-07-31T06:21:10;11.98;;;3.78;;
20653;SDS011;21083;50.898;4.902;2023-07-31T06:23:37;10.07;;;3.83;;
20653;SDS011;21083;50.898;4.902;2023-07-31T06:26:04;12.45;;;3.80;;
20653;SDS011;21083;50.898;4.902;2023-07-31T06:28:31;12.60;;;3.53;;
20653;SDS011;21083;50.898;4.902;2023-07-31T06:30:58;10.02;;;3.63;;
20653;SDS011;21083;50.898;4.902;2023-07-31T06:33:25;12.65;;;3.95;;
20653;SDS011;21083;50.898;4.902;2023-07-31T06:35:54;9.38;;;3.45;;
20653;SDS011;21083;50.898;4.902;2023-07-31T06:38:21;14.68;;;3.72;;
20653;SDS011;21083;50.898;4.902;2023-07-31T06:40:50;12.68;;;3.80;;
20653;SDS011;21083;50.898;4.902;2023-07-31T06:43:18;11.85;;;3.53;;
20653;SDS011;21083;50.898;4.902;2023-07-31T06:45:45;11.45;;;3.63;;
20653;SDS011;21083;50.898;4.902;2023-07-31T06:48:13;12.90;;;3.78;;
20653;SDS011;21083;50.898;4.902;2023-07-31T06:50:40;12.40;;;4.10;;
20653;SDS011;21083;50.898;4.902;2023-07-31T06:53:09;11.98;;;3.70;;
20653;SDS011;21083;50.898;4.902;2023-07-31T06:55:35;12.30;;;4.18;;
20653;SDS011;21083;50.898;4.902;2023-07-31T06:58:03;16.02;;;4.00;;
20653;SDS011;21083;50.898;4.902;2023-07-31T07:00:30;12.43;;;3.88;;
20653;SDS011;21083;50.898;4.902;2023-07-31T07:02:57;14.35;;;4.03;;
20653;SDS011;21083;50.898;4.902;2023-07-31T07:05:24;13.85;;;4.22;;
20653;SDS011;21083;50.898;4.902;2023-07-31T07:07:51;13.70;;;3.60;;
20653;SDS011;21083;50.898;4.902;2023-07-31T07:10:19;10.88;;;3.63;;
20653;SDS011;21083;50.898;4.902;2023-07-31T07:12:47;11.65;;;3.67;;
20653;SDS011;21083;50.898;4.902;2023-07-31T07:15:15;12.80;;;3.92;;
20653;SDS011;21083;50.898;4.902;2023-07-31T07:17:42;9.20;;;3.50;;
20653;SDS011;21083;50.898;4.902;2023-07-31T07:20:09;12.93;;;4.03;;
20653;SDS011;21083;50.898;4.902;2023-07-31T07:22:36;12.07;;;3.28;;
20653;SDS011;21083;50.898;4.902;2023-07-31T07:25:03;14.65;;;3.63;;
20653;SDS011;21083;50.898;4.902;2023-07-31T07:27:33;12.38;;;3.55;;
20653;SDS011;21083;50.898;4.902;2023-07-31T07:30:00;10.65;;;3.33;;
20653;SDS011;21083;50.898;4.902;2023-07-31T07:32:28;11.70;;;3.28;;
20653;SDS011;21083;50.898;4.902;2023-07-31T07:34:55;10.88;;;3.20;;
20653;SDS011;21083;50.898;4.902;2023-07-31T07:37:22;11.02;;;2.83;;
20653;SDS011;21083;50.898;4.902;2023-07-31T07:39:49;10.85;;;3.97;;
20653;SDS011;21083;50.898;4.902;2023-07-31T07:42:16;10.02;;;3.13;;
20653;SDS011;21083;50.898;4.902;2023-07-31T07:44:45;8.55;;;2.90;;
20653;SDS011;21083;50.898;4.902;2023-07-31T07:47:12;10.70;;;3.45;;
20653;SDS011;21083;50.898;4.902;2023-07-31T07:49:39;9.10;;;3.17;;
20653;SDS011;21083;50.898;4.902;2023-07-31T07:52:06;13.13;;;3.25;;
20653;SDS011;21083;50.898;4.902;2023-07-31T07:54:33;13.05;;;3.28;;
20653;SDS011;21083;50.898;4.902;2023-07-31T07:57:00;10.82;;;3.22;;
20653;SDS011;21083;50.898;4.902;2023-07-31T07:59:28;12.45;;;3.15;;
20653;SDS011;21083;50.898;4.902;2023-07-31T08:01:56;13.80;;;3.65;;
20653;SDS011;21083;50.898;4.902;2023-07-31T08:04:23;8.73;;;2.83;;
20653;SDS011;21083;50.898;4.902;2023-07-31T08:06:50;12.40;;;3.53;;
20653;SDS011;21083;50.898;4.902;2023-07-31T08:09:17;14.90;;;3.53;;
20653;SDS011;21083;50.898;4.902;2023-07-31T08:11:44;9.98;;;3.45;;
20653;SDS011;21083;50.898;4.902;2023-07-31T08:14:11;11.02;;;3.15;;
20653;SDS011;21083;50.898;4.902;2023-07-31T08:16:39;10.10;;;3.47;;
20653;SDS011;21083;50.898;4.902;2023-07-31T08:19:08;11.35;;;2.95;;
20653;SDS011;21083;50.898;4.902;2023-07-31T08:21:35;10.95;;;2.95;;
20653;SDS011;21083;50.898;4.902;2023-07-31T08:24:02;7.90;;;3.00;;
20653;SDS011;21083;50.898;4.902;2023-07-31T08:26:29;14.32;;;3.00;;
20653;SDS011;21083;50.898;4.902;2023-07-31T08:28:56;16.90;;;3.67;;
20653;SDS011;21083;50.898;4.902;2023-07-31T08:31:23;8.65;;;3.00;;
20653;SDS011;21083;50.898;4.902;2023-07-31T08:33:52;12.15;;;2.80;;
20653;SDS011;21083;50.898;4.902;2023-07-31T08:36:20;9.82;;;2.97;;
20653;SDS011;21083;50.898;4.902;2023-07-31T08:38:47;9.77;;;2.80;;
20653;SDS011;21083;50.898;4.902;2023-07-31T08:41:15;13.93;;;3.17;;
20653;SDS011;21083;50.898;4.902;2023-07-31T08:43:43;10.52;;;2.72;;
20653;SDS011;21083;50.898;4.902;2023-07-31T08:46:12;9.27;;;2.38;;
20653;SDS011;21083;50.898;4.902;2023-07-31T08:48:39;11.07;;;3.75;;
20653;SDS011;21083;50.898;4.902;2023-07-31T08:51:09;12.77;;;2.67;;
20653;SDS011;21083;50.898;4.902;2023-07-31T08:53:37;12.35;;;3.53;;
20653;SDS011;21083;50.898;4.902;2023-07-31T08:56:04;12.65;;;3.15;;
20653;SDS011;21083;50.898;4.902;2023-07-31T08:58:32;10.63;;;2.90;;
20653;SDS011;21083;50.898;4.902;2023-07-31T09:01:03;9.68;;;3.22;;
20653;SDS011;21083;50.898;4.902;2023-07-31T09:03:33;7.68;;;2.55;;
20653;SDS011;21083;50.898;4.902;2023-07-31T09:06:01;9.20;;;3.10;;
20653;SDS011;21083;50.898;4.902;2023-07-31T09:08:31;10.82;;;3.08;;
20653;SDS011;21083;50.898;4.902;2023-07-31T09:11:00;6.10;;;2.28;;
20653;SDS011;21083;50.898;4.902;2023-07-31T09:13:29;7.28;;;2.28;;
20653;SDS011;21083;50.898;4.902;2023-07-31T09:15:57;9.38;;;2.75;;
20653;SDS011;21083;50.898;4.902;2023-07-31T09:18:24;9.73;;;2.65;;
20653;SDS011;21083;50.898;4.902;2023-07-31T09:21:00;8.75;;;2.63;;
20653;SDS011;21083;50.898;4.902;2023-07-31T09:23:39;7.28;;;2.33;;
20653;SDS011;21083;50.898;4.902;2023-07-31T09:26:09;7.50;;;2.00;;
20653;SDS011;21083;50.898;4.902;2023-07-31T09:28:37;9.45;;;2.50;;
20653;SDS011;21083;50.898;4.902;2023-07-31T09:31:04;8.27;;;2.50;;
20653;SDS011;21083;50.898;4.902;2023-07-31T09:33:31;8.43;;;2.10;;
20653;SDS011;21083;50.898;4.902;2023-07-31T09:35:58;9.55;;;2.83;;
20653;SDS011;21083;50.898;4.902;2023-07-31T09:38:26;8.05;;;2.92;;
20653;SDS011;21083;50.898;4.902;2023-07-31T09:40:53;6.63;;;2.45;;
20653;SDS011;21083;50.898;4.902;2023-07-31T09:43:22;8.90;;;2.30;;
20653;SDS011;21083;50.898;4.902;2023-07-31T09:45:54;7.63;;;2.72;;
20653;SDS011;21083;50.898;4.902;2023-07-31T09:48:22;6.43;;;2.35;;
20653;SDS011;21083;50.898;4.902;2023-07-31T09:50:52;7.13;;;2.55;;
20653;SDS011;21083;50.898;4.902;2023-07-31T09:53:19;12.20;;;3.08;;
20653;SDS011;21083;50.898;4.902;2023-07-31T09:55:55;11.70;;;3.13;;
20653;SDS011;21083;50.898;4.902;2023-07-31T09:58:26;11.25;;;3.08;;
20653;SDS011;21083;50.898;4.902;2023-07-31T10:00:56;9.98;;;3.17;;
20653;SDS011;21083;50.898;4.902;2023-07-31T10:03:24;9.80;;;3.10;;
20653;SDS011;21083;50.898;4.902;2023-07-31T10:05:53;11.80;;;3.42;;
20653;SDS011;21083;50.898;4.902;2023-07-31T10:08:23;13.88;;;3.40;;
20653;SDS011;21083;50.898;4.902;2023-07-31T10:10:55;10.75;;;3.75;;
20653;SDS011;21083;50.898;4.902;2023-07-31T10:13:27;12.95;;;3.78;;
20653;SDS011;21083;50.898;4.902;2023-07-31T10:15:55;9.38;;;2.80;;
20653;SDS011;21083;50.898;4.902;2023-07-31T10:18:25;8.30;;;3.17;;
20653;SDS011;21083;50.898;4.902;2023-07-31T10:20:53;10.43;;;3.25;;
20653;SDS011;21083;50.898;4.902;2023-07-31T10:23:21;7.95;;;3.63;;
20653;SDS011;21083;50.898;4.902;2023-07-31T10:25:50;12.93;;;3.58;;
20653;SDS011;21083;50.898;4.902;2023-07-31T10:28:20;11.38;;;3.97;;
20653;SDS011;21083;50.898;4.902;2023-07-31T10:30:48;14.85;;;3.92;;
20653;SDS011;21083;50.898;4.902;2023-07-31T10:33:16;11.05;;;3.85;;
20653;SDS011;21083;50.898;4.902;2023-07-31T10:35:46;12.68;;;3.83;;
20653;SDS011;21083;50.898;4.902;2023-07-31T10:38:13;13.55;;;4.10;;
20653;SDS011;21083;50.898;4.902;2023-07-31T10:40:41;12.65;;;4.22;;
20653;SDS011;21083;50.898;4.902;2023-07-31T10:43:08;10.80;;;3.70;;
20653;SDS011;21083;50.898;4.902;2023-07-31T10:45:36;10.95;;;3.92;;
20653;SDS011;21083;50.898;4.902;2023-07-31T10:48:06;13.65;;;4.30;;
20653;SDS011;21083;50.898;4.902;2023-07-31T10:50:46;12.38;;;4.07;;
20653;SDS011;21083;50.898;4.902;2023-07-31T10:53:22;11.43;;;4.13;;
20653;SDS011;21083;50.898;4.902;2023-07-31T10:55:50;12.20;;;4.47;;
20653;SDS011;21083;50.898;4.902;2023-07-31T10:58:18;11.45;;;4.40;;
20653;SDS011;21083;50.898;4.902;2023-07-31T11:00:45;11.75;;;4.10;;
20653;SDS011;21083;50.898;4.902;2023-07-31T11:03:15;12.63;;;4.22;;
20653;SDS011;21083;50.898;4.902;2023-07-31T11:05:49;9.98;;;3.85;;
20653;SDS011;21083;50.898;4.902;2023-07-31T11:08:19;17.60;;;4.63;;
20653;SDS011;21083;50.898;4.902;2023-07-31T11:10:48;12.77;;;4.90;;
20653;SDS011;21083;50.898;4.902;2023-07-31T11:13:16;13.70;;;4.70;;
20653;SDS011;21083;50.898;4.902;2023-07-31T11:15:43;13.50;;;4.30;;
20653;SDS011;21083;50.898;4.902;2023-07-31T11:18:11;13.75;;;4.57;;
20653;SDS011;21083;50.898;4.902;2023-07-31T11:20:39;14.23;;;4.13;;
20653;SDS011;21083;50.898;4.902;2023-07-31T11:23:07;14.55;;;4.20;;
20653;SDS011;21083;50.898;4.902;2023-07-31T11:25:35;15.43;;;4.50;;
20653;SDS011;21083;50.898;4.902;2023-07-31T11:28:03;11.77;;;4.32;;
20653;SDS011;21083;50.898;4.902;2023-07-31T11:30:31;14.10;;;4.72;;
20653;SDS011;21083;50.898;4.902;2023-07-31T11:32:59;17.10;;;4.20;;
20653;SDS011;21083;50.898;4.902;2023-07-31T11:35:28;14.63;;;4.18;;
20653;SDS011;21083;50.898;4.902;2023-07-31T11:37:59;16.33;;;4.18;;
20653;SDS011;21083;50.898;4.902;2023-07-31T11:40:26;13.52;;;4.60;;
20653;SDS011;21083;50.898;4.902;2023-07-31T11:42:55;14.68;;;4.38;;
20653;SDS011;21083;50.898;4.902;2023-07-31T11:45:24;17.15;;;4.20;;
20653;SDS011;21083;50.898;4.902;2023-07-31T11:47:53;14.60;;;4.50;;
20653;SDS011;21083;50.898;4.902;2023-07-31T11:50:21;15.20;;;4.10;;
20653;SDS011;21083;50.898;4.902;2023-07-31T11:52:51;14.07;;;4.38;;
20653;SDS011;21083;50.898;4.902;2023-07-31T11:55:23;14.85;;;4.07;;
20653;SDS011;21083;50.898;4.902;2023-07-31T11:57:51;20.00;;;4.35;;
20653;SDS011;21083;50.898;4.902;2023-07-31T12:00:19;15.88;;;4.43;;
20653;SDS011;21083;50.898;4.902;2023-07-31T12:02:47;11.50;;;4.50;;
20653;SDS011;21083;50.898;4.902;2023-07-31T12:05:14;14.88;;;4.78;;
20653;SDS011;21083;50.898;4.902;2023-07-31T12:07:49;14.27;;;4.18;;
20653;SDS011;21083;50.898;4.902;2023-07-31T12:10:27;13.73;;;4.07;;
20653;SDS011;21083;50.898;4.902;2023-07-31T12:12:56;13.15;;;4.07;;
20653;SDS011;21083;50.898;4.902;2023-07-31T12:15:28;13.63;;;4.28;;
20653;SDS011;21083;50.898;4.902;2023-07-31T12:17:57;13.98;;;4.53;;
20653;SDS011;21083;50.898;4.902;2023-07-31T12:20:24;13.15;;;4.45;;
20653;SDS011;21083;50.898;4.902;2023-07-31T12:22:51;15.98;;;4.93;;
20653;SDS011;21083;50.898;4.902;2023-07-31T12:25:18;13.05;;;4.50;;
20653;SDS011;21083;50.898;4.902;2023-07-31T12:27:47;18.48;;;4.35;;
20653;SDS011;21083;50.898;4.902;2023-07-31T12:30:29;12.02;;;3.88;;
20653;SDS011;21083;50.898;4.902;2023-07-31T12:32:58;12.68;;;4.07;;
20653;SDS011;21083;50.898;4.902;2023-07-31T12:35:34;15.48;;;4.18;;
20653;SDS011;21083;50.898;4.902;2023-07-31T12:38:02;12.80;;;3.80;;
20653;SDS011;21083;50.898;4.902;2023-07-31T12:40:29;11.80;;;4.20;;
20653;SDS011;21083;50.898;4.902;2023-07-31T12:42:57;12.73;;;4.35;;
20653;SDS011;21083;50.898;4.902;2023-07-31T12:45:27;15.52;;;4.30;;
20653;SDS011;21083;50.898;4.902;2023-07-31T12:47:54;10.35;;;4.07;;
20653;SDS011;21083;50.898;4.902;2023-07-31T12:50:21;12.55;;;4.18;;
20653;SDS011;21083;50.898;4.902;2023-07-31T12:52:48;12.10;;;4.00;;
20653;SDS011;21083;50.898;4.902;2023-07-31T12:55:15;16.30;;;4.78;;
20653;SDS011;21083;50.898;4.902;2023-07-31T12:57:43;10.07;;;3.55;;
20653;SDS011;21083;50.898;4.902;2023-07-31T13:00:12;14.85;;;4.63;;
20653;SDS011;21083;50.898;4.902;2023-07-31T13:02:40;11.30;;;4.40;;
20653;SDS011;21083;50.898;4.902;2023-07-31T13:05:07;14.48;;;4.28;;
20653;SDS011;21083;50.898;4.902;2023-07-31T13:07:34;11.63;;;4.28;;
20653;SDS011;21083;50.898;4.902;2023-07-31T13:10:01;14.80;;;4.60;;
20653;SDS011;21083;50.898;4.902;2023-07-31T13:12:29;14.90;;;4.63;;
20653;SDS011;21083;50.898;4.902;2023-07-31T13:14:56;12.13;;;4.72;;
20653;SDS011;21083;50.898;4.902;2023-07-31T13:17:24;13.05;;;4.70;;
20653;SDS011;21083;50.898;4.902;2023-07-31T13:19:51;11.60;;;4.63;;
20653;SDS011;21083;50.898;4.902;2023-07-31T13:22:18;14.75;;;4.63;;
20653;SDS011;21083;50.898;4.902;2023-07-31T13:24:45;11.52;;;4.28;;
20653;SDS011;21083;50.898;4.902;2023-07-31T13:27:12;12.55;;;4.50;;
20653;SDS011;21083;50.898;4.902;2023-07-31T13:29:42;14.32;;;4.00;;
20653;SDS011;21083;50.898;4.902;2023-07-31T13:32:09;13.80;;;4.65;;
20653;SDS011;21083;50.898;4.902;2023-07-31T13:34:38;21.00;;;4.50;;
20653;SDS011;21083;50.898;4.902;2023-07-31T13:37:05;10.98;;;3.67;;
20653;SDS011;21083;50.898;4.902;2023-07-31T13:39:32;14.40;;;4.18;;
20653;SDS011;21083;50.898;4.902;2023-07-31T13:41:59;12.07;;;4.30;;
20653;SDS011;21083;50.898;4.902;2023-07-31T13:44:26;12.00;;;3.40;;
20653;SDS011;21083;50.898;4.902;2023-07-31T13:46:53;11.93;;;3.22;;
20653;SDS011;21083;50.898;4.902;2023-07-31T13:49:21;13.20;;;3.50;;
20653;SDS011;21083;50.898;4.902;2023-07-31T13:51:49;12.05;;;3.45;;
20653;SDS011;21083;50.898;4.902;2023-07-31T13:54:16;16.23;;;2.78;;
20653;SDS011;21083;50.898;4.902;2023-07-31T13:56:43;11.35;;;3.30;;
20653;SDS011;21083;50.898;4.902;2023-07-31T13:59:10;12.70;;;2.95;;
20653;SDS011;21083;50.898;4.902;2023-07-31T14:01:38;12.27;;;3.05;;
20653;SDS011;21083;50.898;4.902;2023-07-31T14:04:05;9.32;;;3.17;;
20653;SDS011;21083;50.898;4.902;2023-07-31T14:06:32;9.10;;;2.65;;
20653;SDS011;21083;50.898;4.902;2023-07-31T14:09:01;12.85;;;3.28;;
20653;SDS011;21083;50.898;4.902;2023-07-31T14:11:28;10.73;;;3.00;;
20653;SDS011;21083;50.898;4.902;2023-07-31T14:13:57;10.05;;;2.65;;
20653;SDS011;21083;50.898;4.902;2023-07-31T14:16:24;11.65;;;3.38;;
20653;SDS011;21083;50.898;4.902;2023-07-31T14:18:51;8.07;;;2.78;;
20653;SDS011;21083;50.898;4.902;2023-07-31T14:21:18;8.40;;;2.70;;
20653;SDS011;21083;50.898;4.902;2023-07-31T14:23:45;8.52;;;2.53;;
20653;SDS011;21083;50.898;4.902;2023-07-31T14:26:14;10.65;;;2.63;;
20653;SDS011;21083;50.898;4.902;2023-07-31T14:28:41;8.20;;;2.20;;
20653;SDS011;21083;50.898;4.902;2023-07-31T14:31:09;6.03;;;1.98;;
20653;SDS011;21083;50.898;4.902;2023-07-31T14:33:35;7.40;;;2.42;;
20653;SDS011;21083;50.898;4.902;2023-07-31T14:36:03;6.18;;;2.25;;
20653;SDS011;21083;50.898;4.902;2023-07-31T14:38:30;7.53;;;2.53;;
20653;SDS011;21083;50.898;4.902;2023-07-31T14:40:57;5.53;;;2.10;;